createdAt,value
2022-11-12T00:00:46.791Z,100.00
2022-11-12T00:03:13.169Z,100.00
2022-11-12T00:05:39.552Z,100.00
2022-11-12T00:08:05.978Z,100.00
2022-11-12T00:10:32.375Z,100.00
2022-11-12T00:12:59.338Z,100.00
2022-11-12T00:15:26.349Z,100.00
2022-11-12T00:17:53.195Z,100.00
2022-11-12T00:20:19.598Z,100.00
2022-11-12T00:22:45.999Z,100.00
2022-11-12T00:25:12.385Z,100.00
2022-11-12T00:27:38.791Z,100.00
2022-11-12T00:30:05.825Z,100.00
2022-11-12T00:32:32.238Z,100.00
2022-11-12T00:35:02.418Z,100.00
2022-11-12T00:37:29.347Z,100.00
2022-11-12T00:39:55.708Z,100.00
2022-11-12T00:42:22.073Z,100.00
2022-11-12T00:44:49.823Z,100.00
2022-11-12T00:47:16.635Z,100.00
2022-11-12T00:49:43.163Z,100.00
2022-11-12T00:52:09.565Z,100.00
2022-11-12T00:54:35.926Z,100.00
2022-11-12T00:57:02.298Z,100.00
2022-11-12T00:59:28.756Z,100.00
2022-11-12T01:01:55.157Z,100.00
2022-11-12T01:04:21.522Z,100.00
2022-11-12T01:06:47.912Z,100.00
2022-11-12T01:09:14.313Z,100.00
2022-11-12T01:11:41.498Z,100.00
2022-11-12T01:14:09.131Z,100.00
2022-11-12T01:16:37.874Z,100.00
2022-11-12T01:19:06.214Z,100.00
2022-11-12T01:21:33.705Z,100.00
2022-11-12T01:24:01.338Z,100.00
2022-11-12T01:26:31.088Z,100.00
2022-11-12T01:28:57.675Z,100.00
2022-11-12T01:31:30.189Z,100.00
2022-11-12T01:33:58.566Z,100.00
2022-11-12T01:36:26.584Z,100.00
2022-11-12T01:38:53.964Z,100.00
2022-11-12T01:41:25.676Z,100.00
2022-11-12T01:44:12.492Z,100.00
2022-11-12T01:47:06.155Z,100.00
2022-11-12T01:49:41.935Z,100.00
2022-11-12T01:52:34.766Z,100.00
2022-11-12T01:55:08.274Z,100.00
2022-11-12T01:57:39.549Z,100.00
2022-11-12T02:00:10.062Z,100.00
2022-11-12T02:02:36.954Z,100.00
2022-11-12T02:05:06.736Z,100.00
2022-11-12T02:07:34.450Z,100.00
2022-11-12T02:10:02.273Z,100.00
2022-11-12T02:12:47.307Z,100.00
2022-11-12T02:15:13.979Z,100.00
2022-11-12T02:17:40.343Z,100.00
2022-11-12T02:20:10.694Z,100.00
2022-11-12T02:22:37.082Z,100.00
2022-11-12T02:25:03.815Z,100.00
2022-11-12T02:27:30.256Z,100.00
2022-11-12T02:29:56.721Z,100.00
2022-11-12T02:32:23.091Z,100.00
2022-11-12T02:34:49.455Z,100.00
2022-11-12T02:37:15.814Z,100.00
2022-11-12T02:39:42.185Z,100.00
2022-11-12T02:42:08.554Z,100.00
2022-11-12T02:44:34.991Z,100.00
2022-11-12T02:47:01.392Z,100.00
2022-11-12T02:49:27.797Z,100.00
2022-11-12T02:51:54.217Z,100.00
2022-11-12T02:54:20.589Z,100.00
2022-11-12T02:56:46.976Z,100.00
2022-11-12T02:59:13.355Z,100.00
2022-11-12T03:01:39.717Z,100.00
2022-11-12T03:04:06.112Z,100.00
2022-11-12T03:06:32.473Z,100.00
2022-11-12T03:08:58.846Z,100.00
2022-11-12T03:11:25.244Z,100.00
2022-11-12T03:13:51.616Z,100.00
2022-11-12T03:16:18.003Z,100.00
2022-11-12T03:18:44.439Z,100.00
2022-11-12T03:21:10.816Z,100.00
2022-11-12T03:23:37.183Z,100.00
2022-11-12T03:26:04.402Z,100.00
2022-11-12T03:28:30.976Z,100.00
2022-11-12T03:30:59.257Z,100.00
2022-11-12T03:33:25.764Z,100.00
2022-11-12T03:35:52.303Z,100.00
2022-11-12T03:38:18.740Z,100.00
2022-11-12T03:40:45.141Z,100.00
2022-11-12T03:43:11.527Z,100.00
2022-11-12T03:45:37.914Z,100.00
2022-11-12T03:48:04.467Z,100.00
2022-11-12T03:50:30.959Z,100.00
2022-11-12T03:52:58.980Z,100.00
2022-11-12T03:55:27.807Z,100.00
2022-11-12T03:57:54.609Z,100.00
2022-11-12T04:00:22.325Z,100.00
2022-11-12T04:02:48.891Z,100.00
2022-11-12T04:05:34.472Z,100.00
2022-11-12T04:08:31.039Z,100.00
2022-11-12T04:10:57.409Z,100.00
2022-11-12T04:13:29.688Z,100.00
2022-11-12T04:16:15.310Z,100.00
2022-11-12T04:19:00.214Z,100.00
2022-11-12T04:21:49.519Z,100.00
2022-11-12T04:24:38.466Z,100.00
2022-11-12T04:27:04.886Z,100.00
2022-11-12T04:29:50.420Z,100.00
2022-11-12T04:32:17.087Z,100.00
2022-11-12T04:34:43.556Z,100.00
2022-11-12T04:37:10.003Z,100.00
2022-11-12T04:39:36.372Z,100.00
2022-11-12T04:42:21.764Z,100.00
2022-11-12T04:44:57.168Z,100.00
2022-11-12T04:47:23.633Z,100.00
2022-11-12T04:49:49.999Z,100.00
2022-11-12T04:52:16.540Z,100.00
2022-11-12T04:54:42.899Z,100.00
2022-11-12T04:57:09.308Z,100.00
2022-11-12T04:59:35.673Z,100.00
2022-11-12T05:02:02.147Z,100.00
2022-11-12T05:04:29.235Z,100.00
2022-11-12T05:06:56.912Z,100.00
2022-11-12T05:09:25.712Z,100.00
2022-11-12T05:11:52.779Z,100.00
2022-11-12T05:14:19.189Z,100.00
2022-11-12T05:16:45.762Z,100.00
2022-11-12T05:19:12.179Z,100.00
2022-11-12T05:21:57.026Z,100.00
2022-11-12T05:24:40.928Z,100.00
2022-11-12T05:27:14.106Z,100.00
2022-11-12T05:29:40.755Z,100.00
2022-11-12T05:32:08.016Z,100.00
2022-11-12T05:34:34.724Z,100.00
2022-11-12T05:37:03.106Z,100.00
2022-11-12T05:39:29.883Z,100.00
2022-11-12T05:42:12.454Z,100.00
2022-11-12T05:44:39.575Z,100.00
2022-11-12T05:47:05.922Z,100.00
2022-11-12T05:49:32.396Z,100.00
2022-11-12T05:51:58.817Z,100.00
2022-11-12T05:54:25.222Z,100.00
2022-11-12T05:56:53.317Z,100.00
2022-11-12T05:59:19.749Z,100.00
2022-11-12T06:01:46.191Z,100.00
2022-11-12T06:04:16.542Z,100.00
2022-11-12T06:06:43.649Z,100.00
2022-11-12T06:09:10.491Z,100.00
2022-11-12T06:11:37.548Z,100.00
2022-11-12T06:14:04.460Z,100.00
2022-11-12T06:16:31.368Z,100.00
2022-11-12T06:18:58.350Z,100.00
2022-11-12T06:21:24.802Z,100.00
2022-11-12T06:24:00.479Z,100.00
2022-11-12T06:26:28.566Z,100.00
2022-11-12T06:28:55.516Z,100.00
2022-11-12T06:31:22.399Z,100.00
2022-11-12T06:33:49.032Z,100.00
2022-11-12T06:36:17.532Z,100.00
2022-11-12T06:38:44.111Z,100.00
2022-11-12T06:41:11.977Z,100.00
2022-11-12T06:43:38.954Z,100.00
2022-11-12T06:46:16.502Z,100.00
2022-11-12T06:48:42.999Z,100.00
2022-11-12T06:51:17.626Z,100.00
2022-11-12T06:53:44.175Z,100.00
2022-11-12T06:56:10.678Z,100.00
2022-11-12T06:58:37.212Z,100.00
2022-11-12T07:01:10.946Z,100.00
2022-11-12T07:03:39.230Z,100.00
2022-11-12T07:06:07.851Z,100.00
2022-11-12T07:08:34.716Z,100.00
2022-11-12T07:11:01.183Z,100.00
2022-11-12T07:13:30.343Z,100.00
2022-11-12T07:15:58.526Z,100.00
2022-11-12T07:18:25.544Z,100.00
2022-11-12T07:20:52.199Z,100.00
2022-11-12T07:23:18.571Z,100.00
2022-11-12T07:25:44.937Z,100.00
2022-11-12T07:28:11.294Z,100.00
2022-11-12T07:30:37.789Z,100.00
2022-11-12T07:33:04.215Z,100.00
2022-11-12T07:35:30.791Z,100.00
2022-11-12T07:37:59.697Z,100.00
2022-11-12T07:40:26.211Z,100.00
2022-11-12T07:42:52.602Z,100.00
2022-11-12T07:45:19.016Z,100.00
2022-11-12T07:47:45.388Z,100.00
2022-11-12T07:50:11.749Z,100.00
2022-11-12T07:52:38.147Z,100.00
2022-11-12T07:55:04.974Z,100.00
2022-11-12T07:57:33.130Z,100.00
2022-11-12T07:59:59.495Z,100.00
2022-11-12T08:02:25.874Z,100.00
2022-11-12T08:04:52.574Z,100.00
2022-11-12T08:07:19.060Z,100.00
2022-11-12T08:09:45.500Z,100.00
2022-11-12T08:12:11.873Z,100.00
2022-11-12T08:14:38.220Z,100.00
2022-11-12T08:17:04.600Z,100.00
2022-11-12T08:19:30.948Z,100.00
2022-11-12T08:21:57.316Z,100.00
2022-11-12T08:24:23.685Z,100.00
2022-11-12T08:26:50.147Z,100.00
2022-11-12T08:29:16.500Z,100.00
2022-11-12T08:31:42.881Z,100.00
2022-11-12T08:34:12.535Z,100.00
2022-11-12T08:36:40.209Z,100.00
2022-11-12T08:39:07.328Z,100.00
2022-11-12T08:41:33.983Z,100.00
2022-11-12T08:44:05.548Z,100.00
2022-11-12T08:46:34.641Z,100.00
2022-11-12T08:49:01.038Z,100.00
2022-11-12T08:51:27.405Z,100.00
2022-11-12T08:53:53.768Z,100.00
2022-11-12T08:56:20.117Z,100.00
2022-11-12T08:58:46.489Z,100.00
2022-11-12T09:01:12.997Z,100.00
2022-11-12T09:03:39.454Z,100.00
2022-11-12T09:06:06.096Z,100.00
2022-11-12T09:08:34.381Z,100.00
2022-11-12T09:11:00.757Z,100.00
2022-11-12T09:13:27.156Z,100.00
2022-11-12T09:15:53.557Z,100.00
2022-11-12T09:18:20.024Z,100.00
2022-11-12T09:20:46.681Z,100.00
2022-11-12T09:23:15.142Z,100.00
2022-11-12T09:25:41.970Z,100.00
2022-11-12T09:28:10.033Z,100.00
2022-11-12T09:30:38.036Z,100.00
2022-11-12T09:33:04.791Z,100.00
2022-11-12T09:35:31.295Z,100.00
2022-11-12T09:37:59.314Z,100.00
2022-11-12T09:40:39.241Z,100.00
2022-11-12T09:43:11.552Z,100.00
2022-11-12T09:45:37.922Z,100.00
2022-11-12T09:48:09.123Z,100.00
2022-11-12T09:50:43.172Z,100.00
2022-11-12T09:53:18.598Z,100.00
2022-11-12T09:55:49.514Z,100.00
2022-11-12T09:58:17.530Z,100.00
2022-11-12T10:00:58.885Z,100.00
2022-11-12T10:03:37.112Z,100.00
2022-11-12T10:06:19.151Z,100.00
2022-11-12T10:08:58.524Z,100.00
2022-11-12T10:12:02.841Z,100.00
2022-11-12T10:14:52.795Z,100.00
2022-11-12T10:17:39.229Z,100.00
2022-11-12T10:20:22.906Z,100.00
2022-11-12T10:23:13.945Z,100.00
2022-11-12T10:25:43.669Z,100.00
2022-11-12T10:28:43.805Z,100.00
2022-11-12T10:31:18.720Z,100.00
2022-11-12T10:33:45.317Z,100.00
2022-11-12T10:36:23.526Z,98.88
2022-11-12T10:38:52.985Z,94.98
2022-11-12T10:41:28.720Z,91.78
2022-11-12T10:43:59.186Z,91.47
2022-11-12T10:46:31.012Z,94.00
2022-11-12T10:49:02.619Z,96.66
2022-11-12T10:51:34.564Z,99.69
2022-11-12T10:54:34.842Z,98.06
2022-11-12T10:57:25.462Z,97.66
2022-11-12T11:00:12.013Z,96.96
2022-11-12T11:02:46.956Z,96.83
2022-11-12T11:05:27.426Z,98.33
2022-11-12T11:07:53.803Z,100.00
2022-11-12T11:10:29.092Z,100.00
2022-11-12T11:13:21.727Z,100.00
2022-11-12T11:15:57.517Z,100.00
2022-11-12T11:18:24.189Z,98.89
2022-11-12T11:21:04.966Z,96.72
2022-11-12T11:23:42.587Z,96.26
2022-11-12T11:26:38.666Z,97.22
2022-11-12T11:29:35.873Z,96.23
2022-11-12T11:32:20.996Z,94.67
2022-11-12T11:35:27.480Z,92.17
2022-11-12T11:38:11.138Z,94.98
2022-11-12T11:40:46.612Z,94.45
2022-11-12T11:43:36.192Z,95.84
2022-11-12T11:46:16.671Z,96.92
2022-11-12T11:49:17.531Z,98.42
2022-11-12T11:51:55.009Z,98.10
2022-11-12T11:55:04.492Z,95.57
2022-11-12T11:57:43.932Z,96.27
2022-11-12T12:00:13.317Z,95.95
2022-11-12T12:03:05.983Z,97.17
2022-11-12T12:05:46.124Z,95.19
2022-11-12T12:08:29.748Z,96.03
2022-11-12T12:11:15.854Z,96.43
2022-11-12T12:13:45.135Z,94.25
2022-11-12T12:16:22.261Z,93.10
2022-11-12T12:19:20.756Z,92.58
2022-11-12T12:21:50.378Z,91.09
2022-11-12T12:24:30.337Z,92.09
2022-11-12T12:27:12.332Z,92.56
2022-11-12T12:29:45.496Z,91.08
2022-11-12T12:32:27.134Z,89.71
2022-11-12T12:35:21.966Z,87.81
2022-11-12T12:37:55.560Z,88.98
2022-11-12T12:40:26.428Z,89.77
2022-11-12T12:42:57.245Z,90.85
2022-11-12T12:45:36.391Z,87.97
2022-11-12T12:48:04.940Z,85.00
2022-11-12T12:50:31.603Z,83.79
2022-11-12T12:53:04.181Z,83.47
2022-11-12T12:55:52.315Z,84.72
2022-11-12T12:58:32.002Z,83.59
2022-11-12T13:01:21.846Z,83.14
2022-11-12T13:03:51.249Z,81.77
2022-11-12T13:06:23.822Z,81.48
2022-11-12T13:09:02.655Z,82.95
2022-11-12T13:12:00.030Z,82.45
2022-11-12T13:14:35.209Z,82.53
2022-11-12T13:17:08.831Z,82.57
2022-11-12T13:20:09.362Z,82.85
2022-11-12T13:22:38.703Z,81.12
2022-11-12T13:25:06.567Z,79.84
2022-11-12T13:27:53.188Z,79.38
2022-11-12T13:30:22.221Z,78.44
2022-11-12T13:32:48.755Z,78.66
2022-11-12T13:35:21.753Z,78.83
2022-11-12T13:37:56.764Z,78.36
2022-11-12T13:40:23.111Z,77.82
2022-11-12T13:42:50.127Z,78.42
2022-11-12T13:45:22.723Z,78.64
2022-11-12T13:47:49.191Z,79.87
2022-11-12T13:50:23.334Z,77.84
2022-11-12T13:52:50.113Z,75.83
2022-11-12T13:55:21.256Z,74.50
2022-11-12T13:57:55.518Z,73.99
2022-11-12T14:00:25.868Z,73.85
2022-11-12T14:02:55.783Z,74.38
2022-11-12T14:05:25.453Z,76.42
2022-11-12T14:08:10.329Z,77.99
2022-11-12T14:10:49.818Z,79.35
2022-11-12T14:13:34.643Z,79.63
2022-11-12T14:16:19.167Z,81.04
2022-11-12T14:19:04.354Z,81.59
2022-11-12T14:21:30.764Z,82.55
2022-11-12T14:23:57.240Z,82.93
2022-11-12T14:26:41.039Z,83.38
2022-11-12T14:29:14.081Z,83.61
2022-11-12T14:31:40.466Z,83.58
2022-11-12T14:34:27.044Z,83.26
2022-11-12T14:36:55.879Z,82.78
2022-11-12T14:39:24.212Z,84.53
2022-11-12T14:41:50.880Z,84.98
2022-11-12T14:44:26.650Z,84.39
2022-11-12T14:46:55.070Z,83.59
2022-11-12T14:49:45.201Z,83.99
2022-11-12T14:52:23.149Z,82.88
2022-11-12T14:54:55.237Z,83.08
2022-11-12T14:57:27.622Z,83.18
2022-11-12T14:59:54.583Z,83.10
2022-11-12T15:02:42.294Z,83.54
2022-11-12T15:05:13.696Z,84.48
2022-11-12T15:07:59.268Z,85.62
2022-11-12T15:10:37.435Z,86.97
2022-11-12T15:13:07.048Z,87.38
2022-11-12T15:15:34.546Z,86.94
2022-11-12T15:18:03.535Z,86.96
2022-11-12T15:20:29.938Z,87.95
2022-11-12T15:22:56.602Z,89.11
2022-11-12T15:25:30.964Z,90.54
2022-11-12T15:28:13.075Z,92.15
2022-11-12T15:30:39.533Z,91.29
2022-11-12T15:33:11.998Z,91.59
2022-11-12T15:35:43.846Z,92.25
2022-11-12T15:38:14.320Z,93.66
2022-11-12T15:40:45.609Z,94.94
2022-11-12T15:43:14.422Z,96.77
2022-11-12T15:45:40.852Z,98.35
2022-11-12T15:48:11.425Z,99.40
2022-11-12T15:50:39.040Z,100.00
2022-11-12T15:53:05.793Z,100.00
2022-11-12T15:55:33.322Z,100.00
2022-11-12T15:57:59.827Z,99.58
2022-11-12T16:00:31.716Z,99.28
2022-11-12T16:03:02.298Z,98.53
2022-11-12T16:05:28.647Z,99.05
2022-11-12T16:07:55.010Z,99.00
2022-11-12T16:10:21.378Z,99.07
2022-11-12T16:12:48.033Z,99.40
2022-11-12T16:15:15.890Z,100.00
2022-11-12T16:17:42.355Z,100.00
2022-11-12T16:20:16.808Z,100.00
2022-11-12T16:22:43.225Z,100.00
2022-11-12T16:25:10.136Z,100.00
2022-11-12T16:27:38.204Z,100.00
2022-11-12T16:30:07.259Z,100.00
2022-11-12T16:32:33.616Z,100.00
2022-11-12T16:35:01.271Z,100.00
2022-11-12T16:37:27.980Z,100.00
2022-11-12T16:39:54.339Z,100.00
2022-11-12T16:42:20.698Z,100.00
2022-11-12T16:44:47.045Z,100.00
2022-11-12T16:47:13.512Z,100.00
2022-11-12T16:49:40.510Z,100.00
2022-11-12T16:52:09.094Z,100.00
2022-11-12T16:54:35.452Z,100.00
2022-11-12T16:57:01.837Z,100.00
2022-11-12T16:59:28.305Z,100.00
2022-11-12T17:01:54.687Z,100.00
2022-11-12T17:04:24.055Z,100.00
2022-11-12T17:06:50.445Z,100.00
2022-11-12T17:09:16.934Z,100.00
2022-11-12T17:11:43.289Z,100.00
2022-11-12T17:14:10.955Z,100.00
2022-11-12T17:16:37.342Z,100.00
2022-11-12T17:19:04.073Z,100.00
2022-11-12T17:21:30.518Z,100.00
2022-11-12T17:23:57.872Z,100.00
2022-11-12T17:26:24.441Z,100.00
2022-11-12T17:28:57.094Z,100.00
2022-11-12T17:31:25.848Z,100.00
2022-11-12T17:33:52.994Z,100.00
2022-11-12T17:36:21.784Z,100.00
2022-11-12T17:38:48.269Z,100.00
2022-11-12T17:41:14.862Z,100.00
2022-11-12T17:43:41.544Z,100.00
2022-11-12T17:46:09.497Z,100.00
2022-11-12T17:48:36.895Z,100.00
2022-11-12T17:51:08.737Z,100.00
2022-11-12T17:53:36.062Z,100.00
2022-11-12T17:56:02.744Z,100.00
2022-11-12T17:58:29.523Z,100.00
2022-11-12T18:00:57.034Z,100.00
2022-11-12T18:03:23.454Z,100.00
2022-11-12T18:05:59.981Z,100.00
2022-11-12T18:08:26.388Z,100.00
2022-11-12T18:10:52.938Z,100.00
2022-11-12T18:13:19.381Z,100.00
2022-11-12T18:15:45.855Z,100.00
2022-11-12T18:18:12.411Z,100.00
2022-11-12T18:20:39.404Z,100.00
2022-11-12T18:23:05.870Z,100.00
2022-11-12T18:25:32.261Z,100.00
2022-11-12T18:27:58.744Z,100.00
2022-11-12T18:30:25.174Z,100.00
2022-11-12T18:32:51.575Z,100.00
2022-11-12T18:35:17.980Z,100.00
2022-11-12T18:37:44.533Z,100.00
2022-11-12T18:40:11.307Z,100.00
2022-11-12T18:42:37.677Z,100.00
2022-11-12T18:45:04.295Z,100.00
2022-11-12T18:47:30.777Z,100.00
2022-11-12T18:49:57.142Z,100.00
2022-11-12T18:52:23.583Z,100.00
2022-11-12T18:54:50.020Z,100.00
2022-11-12T18:57:16.454Z,100.00
2022-11-12T18:59:42.908Z,100.00
2022-11-12T19:02:12.071Z,100.00
2022-11-12T19:04:44.044Z,100.00
2022-11-12T19:07:11.758Z,100.00
2022-11-12T19:09:38.229Z,100.00
2022-11-12T19:12:04.856Z,100.00
2022-11-12T19:14:31.234Z,100.00
2022-11-12T19:16:57.970Z,100.00
2022-11-12T19:19:24.335Z,100.00
2022-11-12T19:21:50.706Z,100.00
2022-11-12T19:24:17.164Z,100.00
2022-11-12T19:26:43.642Z,100.00
2022-11-12T19:29:10.059Z,100.00
2022-11-12T19:31:36.808Z,100.00
2022-11-12T19:34:03.230Z,100.00
2022-11-12T19:36:29.719Z,100.00
2022-11-12T19:38:57.418Z,100.00
2022-11-12T19:41:24.206Z,100.00
2022-11-12T19:43:51.390Z,100.00
2022-11-12T19:46:17.986Z,100.00
2022-11-12T19:48:44.644Z,100.00
2022-11-12T19:51:12.383Z,100.00
2022-11-12T19:53:44.204Z,100.00
2022-11-12T19:56:16.878Z,100.00
2022-11-12T19:58:48.138Z,100.00
2022-11-12T20:01:17.700Z,100.00
2022-11-12T20:03:44.469Z,100.00
2022-11-12T20:06:13.824Z,100.00
2022-11-12T20:08:40.648Z,100.00
2022-11-12T20:11:07.018Z,100.00
2022-11-12T20:13:33.385Z,100.00
2022-11-12T20:15:59.790Z,100.00
2022-11-12T20:18:26.955Z,100.00
2022-11-12T20:20:56.264Z,100.00
2022-11-12T20:23:23.713Z,100.00
2022-11-12T20:25:51.156Z,100.00
2022-11-12T20:28:18.095Z,100.00
2022-11-12T20:30:45.055Z,100.00
2022-11-12T20:33:13.423Z,100.00
2022-11-12T20:35:39.825Z,100.00
2022-11-12T20:38:06.469Z,100.00
2022-11-12T20:40:33.079Z,100.00
2022-11-12T20:42:59.477Z,100.00
2022-11-12T20:45:27.002Z,100.00
2022-11-12T20:47:54.994Z,100.00
2022-11-12T20:50:21.493Z,100.00
2022-11-12T20:52:48.067Z,100.00
2022-11-12T20:55:14.509Z,100.00
2022-11-12T20:57:40.902Z,100.00
2022-11-12T21:00:13.264Z,100.00
2022-11-12T21:02:40.419Z,100.00
2022-11-12T21:05:07.123Z,100.00
2022-11-12T21:07:33.663Z,100.00
2022-11-12T21:10:00.198Z,100.00
2022-11-12T21:12:26.583Z,100.00
2022-11-12T21:14:52.974Z,100.00
2022-11-12T21:17:19.734Z,100.00
2022-11-12T21:19:46.155Z,100.00
2022-11-12T21:22:14.718Z,100.00
2022-11-12T21:24:41.112Z,100.00
2022-11-12T21:27:07.500Z,100.00
2022-11-12T21:29:34.604Z,100.00
2022-11-12T21:32:01.014Z,100.00
2022-11-12T21:34:27.466Z,100.00
2022-11-12T21:36:53.827Z,100.00
2022-11-12T21:39:20.703Z,100.00
2022-11-12T21:41:47.075Z,100.00
2022-11-12T21:44:13.452Z,100.00
2022-11-12T21:46:40.379Z,100.00
2022-11-12T21:49:06.788Z,100.00
2022-11-12T21:51:33.512Z,100.00
2022-11-12T21:54:05.119Z,100.00
2022-11-12T21:56:33.265Z,100.00
2022-11-12T21:59:01.131Z,100.00
2022-11-12T22:01:29.430Z,100.00
2022-11-12T22:03:57.120Z,100.00
2022-11-12T22:06:25.523Z,100.00
2022-11-12T22:08:52.976Z,100.00
2022-11-12T22:11:19.816Z,100.00
2022-11-12T22:13:46.436Z,100.00
2022-11-12T22:16:19.520Z,100.00
2022-11-12T22:18:48.379Z,100.00
2022-11-12T22:21:17.282Z,100.00
2022-11-12T22:23:43.982Z,100.00
2022-11-12T22:26:15.129Z,100.00
2022-11-12T22:28:41.940Z,100.00
2022-11-12T22:31:11.687Z,100.00
2022-11-12T22:33:38.625Z,100.00
2022-11-12T22:36:13.281Z,100.00
2022-11-12T22:38:41.800Z,100.00
2022-11-12T22:41:10.917Z,100.00
2022-11-12T22:43:37.979Z,100.00
2022-11-12T22:46:09.898Z,100.00
2022-11-12T22:48:36.499Z,100.00
2022-11-12T22:51:05.302Z,100.00
2022-11-12T22:53:31.993Z,100.00
2022-11-12T22:56:05.807Z,100.00
2022-11-12T22:58:39.975Z,100.00
2022-11-12T23:01:08.913Z,100.00
2022-11-12T23:03:35.795Z,100.00
2022-11-12T23:06:04.812Z,100.00
2022-11-12T23:08:31.719Z,100.00
2022-11-12T23:11:02.538Z,100.00
2022-11-12T23:13:28.905Z,100.00
2022-11-12T23:15:55.311Z,100.00
2022-11-12T23:18:21.726Z,100.00
2022-11-12T23:20:48.102Z,100.00
2022-11-12T23:23:14.467Z,100.00
2022-11-12T23:25:40.928Z,100.00
2022-11-12T23:28:07.671Z,100.00
2022-11-12T23:30:35.308Z,100.00
2022-11-12T23:33:02.077Z,100.00
2022-11-12T23:35:29.831Z,100.00
2022-11-12T23:37:56.187Z,100.00
2022-11-12T23:40:24.292Z,100.00
2022-11-12T23:42:53.728Z,100.00
2022-11-12T23:45:20.099Z,100.00
2022-11-12T23:47:46.474Z,100.00
2022-11-12T23:50:12.911Z,100.00
2022-11-12T23:52:39.278Z,100.00
2022-11-12T23:55:05.779Z,100.00
2022-11-12T23:57:32.873Z,100.00
2022-11-12T23:59:59.253Z,100.00
